Strona główna
METAR-TAF:

METAR-TAF

Lotnisko :

Lotnisko Ronaldsway

Wyspa Man,

Szerokość geograficzna: 54-05N, Długość geograficzna: 004-38W, wysokość: 17 m

Aktualna obserwacja pogody

Raport powstał 29 minut temu, godzina 05:50 UTC
Wiatr 4 kt od północ
Temperatura 4°C
Wilgotność 93%
Ciśnienie 1027 hPa
Widzialność 10 km lub więcej
Brak chmur poniżej 1500 m i brak chmur cumulonimbus

METAR: EGNS 070550Z 01004KT CAVOK 04/03 Q1027 NOSIG

czas: 07:19 (06:19 UTC)

Prognoza

Raport powstał 1 godzina i 19 minut temu, godzina 05:00 UTC
Prognoza ważna od 07 godzina 06 UTC do 07 godzina 09 UTC
Wiatr 8 kt od południe
Widzialność 10 km lub więcej
Mało chmury na wysokości 600 ft
Prawdopodobieństwo 30% :
Przejściowo
od 07 godzina 06 UTC do 07 godzina 09 UTC
Widzialność: 5000 m
Przerywane chmury na wysokości 400 ft
zamglenie

TAF: EGNS 070500Z 0706/0709 18008KT 9999 FEW006 PROB30 TEMPO 0706/0709 5000 BR BKN004

Obserwacja i prognoza pogody dla ponad 4000 lotnisk (raport METAR i TAF).

Dostępne stacje oznaczono żółtymi i czerwonymi punktami na mapie.

Najedź kursorem aby zobaczyć nazwę stacji.

Kliknij aby zobaczyć obserwacje i prognozy pogody.

Aby zmienić mapę: kliknij na zielony przycisk z czarnym krzyżykiem, aby powiększyć; na zielony przycisk z myślnikiem, aby pomniejszyć; na zielone strzałki, aby przejść do map sąsiednich.


METAR-TAF: